Airfield :
LOGIN :

Register | Disclaimer

   EN    FR    IT 

 










Legend :    VFR   Marginal VFR   IFR   Intensive IFR   Very Intensive IFR
Visi :
Ceiling :
>= 8 km
>= 3000ft
5 to 8 km
1000 to 3000 ft
1500m to 5 km
500 to 1000 ft
800 to 1500m
200 to 500 ft
< 800m
< 200 ft
Symbols :   Thunderstorms  Fog  Heavy snow  Heavy precipitations  Wind > 20 kt
SIGMETs :     Misc.  Thunderstorms  Icing  Turbulence  Mountain Waves  Volcanic Ashes







- Airport Elevation : 659 ft
- IATA code : LYN
- Download approach charts


LFLY - Lyon Bron

CURRENT METAR :
  • 201400Z AUTO 33011KT 300V360 9999 FEW037 BKN058 OVC100 18/10 Q1010 TEMPO SHRA SCT020TCU BKN035

EXPIRED METARs :
  • 201330Z AUTO 32011KT 9999 SCT031/// BKN039/// BKN047/// ///CB 17/10 Q1010 TEMPO SHRA
  • 201300Z AUTO 30010KT 270V340 9999 BKN032 BKN039 OVC048 17/10 Q1010 TEMPO SHRA SCT020TCU BKN035
  • 201230Z AUTO 30009KT 270V330 9999 BKN030 OVC036 17/10 Q1010 TEMPO 4000 SHRA BKN030TCU
  • 201200Z AUTO 31010KT 280V340 9999 BKN029 BKN049 OVC100 17/10 Q1010 TEMPO 4000 SHRA BKN030TCU
  • 201130Z AUTO 30009KT 270V330 9999 SCT025 BKN033 BKN039 16/10 Q1010 TEMPO 4000 SHRA BKN030TCU

TAF AMD TAF LFLY
Valid from the 20 at 12:00 until the 21 at 12:00 UTC


201216Z 2012/2112 34008KT 9999 SCT030 BKN040
TEMPO 2012/2021 6000 SHRA SCT020TCU BKN035
PROB30
TEMPO 2021/2102 7000 -RA BKN025
PROB40
TEMPO 2102/2107 5000 OVC010
BECMG 2107/2110 SCT030
ATIS : +33 4 72 15 87 96
No reported NOTAMs for that airfield.



MET'MAP, your aeronautical weather chart ! - Copyright ORBIFLY December 2007 - Disclaimer

ORBIFLY MET'MAP TEAM :

Programming & Development : Alexandra Zaïnal
Concept & Development : Baudouin d'Aumeries
Co-Development & Prog : Marc-Olivier Méhu
Technical & hardware support : Manuel Goepfert

Contact : metmap@orbifly.com




SOURCES & CREDITS :

   NOAA